createdAt,value
2022-10-27T00:01:01.237Z,101876.88
2022-10-27T00:06:04.075Z,101888.44
2022-10-27T00:08:30.535Z,101895.06
2022-10-27T00:10:58.741Z,101893.78
2022-10-27T00:13:25.729Z,101898.78
2022-10-27T00:16:03.911Z,101891.47
2022-10-27T00:18:30.731Z,101900.38
2022-10-27T00:20:59.023Z,101899.16
2022-10-27T00:23:25.552Z,101900.78
2022-10-27T00:25:53.650Z,101913.16
2022-10-27T00:28:20.139Z,101916.00
2022-10-27T00:30:46.611Z,101915.81
2022-10-27T00:33:13.069Z,101914.47
2022-10-27T00:35:39.545Z,101916.75
2022-10-27T00:38:06.014Z,101913.50
2022-10-27T00:40:38.719Z,101917.47
2022-10-27T00:43:24.351Z,101923.56
2022-10-27T00:45:50.948Z,101922.53
2022-10-27T00:48:17.438Z,101923.69
2022-10-27T00:50:44.425Z,101920.75
2022-10-27T00:53:11.276Z,101930.25
2022-10-27T00:55:39.259Z,101927.34
2022-10-27T00:58:08.677Z,101931.69
2022-10-27T01:00:37.218Z,101937.63
2022-10-27T01:03:03.800Z,101941.97
2022-10-27T01:05:30.266Z,101940.25
2022-10-27T01:07:59.307Z,101934.28
2022-10-27T01:10:26.168Z,101956.00
2022-10-27T01:12:54.273Z,101950.25
2022-10-27T01:15:22.873Z,101952.28
2022-10-27T01:17:58.366Z,101950.53
2022-10-27T01:20:40.872Z,101956.00
2022-10-27T01:23:37.360Z,101958.13
2022-10-27T01:26:23.432Z,101965.59
2022-10-27T01:29:06.777Z,101963.84
2022-10-27T01:32:22.505Z,101967.38
2022-10-27T01:35:20.621Z,101976.25
2022-10-27T01:37:52.483Z,101978.28
2022-10-27T01:40:21.696Z,101976.25
2022-10-27T01:42:55.952Z,101971.31
2022-10-27T01:45:28.241Z,101976.03
2022-10-27T01:47:58.790Z,101974.00
2022-10-27T01:50:40.092Z,101983.06
2022-10-27T01:53:17.030Z,101977.25
2022-10-27T01:56:05.623Z,101986.56
2022-10-27T01:58:47.207Z,101985.22
2022-10-27T02:01:43.136Z,101983.81
2022-10-27T02:04:34.286Z,101990.59
2022-10-27T02:07:09.355Z,101996.56
2022-10-27T02:09:44.024Z,101996.22
2022-10-27T02:12:19.983Z,101992.69
2022-10-27T02:14:47.454Z,101994.84
2022-10-27T02:17:14.274Z,101998.94
2022-10-27T02:19:42.445Z,102005.75
2022-10-27T02:22:09.669Z,102010.00
2022-10-27T02:24:36.175Z,102014.09
2022-10-27T02:27:09.475Z,102007.81
2022-10-27T02:29:46.691Z,102008.25
2022-10-27T02:32:16.725Z,102008.53
2022-10-27T02:34:47.091Z,102012.06
2022-10-27T02:37:24.917Z,102018.50
2022-10-27T02:39:51.461Z,102017.41
2022-10-27T02:42:17.947Z,102016.41
2022-10-27T02:44:44.407Z,102015.19
2022-10-27T02:47:10.857Z,102023.06
2022-10-27T02:49:37.343Z,102023.97
2022-10-27T02:52:06.544Z,102026.00
2022-10-27T02:54:33.218Z,102032.19
2022-10-27T02:56:59.697Z,102030.25
2022-10-27T02:59:26.199Z,102033.09
2022-10-27T03:01:52.801Z,102033.75
2022-10-27T03:04:19.455Z,102042.16
2022-10-27T03:06:45.931Z,102036.44
2022-10-27T03:09:12.400Z,102037.91
2022-10-27T03:11:40.515Z,102037.91
2022-10-27T03:14:09.221Z,102047.31
2022-10-27T03:16:35.675Z,102052.88
2022-10-27T03:19:02.231Z,102046.47
2022-10-27T03:21:28.695Z,102052.22
2022-10-27T03:23:55.157Z,102057.47
2022-10-27T03:26:21.654Z,102061.34
2022-10-27T03:28:48.327Z,102064.75
2022-10-27T03:31:14.807Z,102062.53
2022-10-27T03:33:41.669Z,102071.19
2022-10-27T03:36:08.487Z,102059.91
2022-10-27T03:38:34.952Z,102061.31
2022-10-27T03:41:01.403Z,102071.91
2022-10-27T03:43:30.010Z,102080.22
2022-10-27T03:46:00.071Z,102074.53
2022-10-27T03:48:27.595Z,102082.56
2022-10-27T03:50:54.051Z,102071.75
2022-10-27T03:53:20.578Z,102081.22
2022-10-27T03:55:48.065Z,102090.53
2022-10-27T03:58:16.760Z,102087.59
2022-10-27T04:00:44.081Z,102087.84
2022-10-27T04:03:10.613Z,102097.06
2022-10-27T04:05:37.087Z,102103.97
2022-10-27T04:08:03.599Z,102110.81
2022-10-27T04:10:30.263Z,102106.09
2022-10-27T04:12:57.227Z,102108.28
2022-10-27T04:15:25.179Z,102111.31
2022-10-27T04:17:56.088Z,102117.31
2022-10-27T04:20:23.181Z,102109.63
2022-10-27T04:22:50.160Z,102109.63
2022-10-27T04:25:17.258Z,102115.69
2022-10-27T04:27:44.229Z,102111.22
2022-10-27T04:30:11.344Z,102108.34
2022-10-27T04:32:38.150Z,102117.97
2022-10-27T04:35:06.402Z,102113.38
2022-10-27T04:37:34.009Z,102125.50
2022-10-27T04:40:00.607Z,102127.63
2022-10-27T04:42:27.056Z,102134.44
2022-10-27T04:44:53.521Z,102144.19
2022-10-27T04:47:19.979Z,102143.59
2022-10-27T04:49:46.447Z,102144.09
2022-10-27T04:54:44.965Z,102142.25
2022-10-27T04:57:11.579Z,102135.59
2022-10-27T04:59:38.054Z,102141.78
2022-10-27T05:02:04.664Z,102143.59
2022-10-27T05:04:31.189Z,102142.25
2022-10-27T05:06:57.640Z,102135.53
2022-10-27T05:09:24.095Z,102141.88
2022-10-27T05:11:50.547Z,102135.78
2022-10-27T05:14:17.052Z,102133.00
2022-10-27T05:16:43.507Z,102130.69
2022-10-27T05:19:09.960Z,102127.63
2022-10-27T05:21:36.448Z,102127.47
2022-10-27T05:24:02.938Z,102127.28
2022-10-27T05:26:30.895Z,102133.00
2022-10-27T05:28:59.447Z,102130.34
2022-10-27T05:31:25.911Z,102129.69
2022-10-27T05:33:52.572Z,102136.41
2022-10-27T05:36:19.086Z,102139.72
2022-10-27T05:38:46.354Z,102133.59
2022-10-27T05:41:13.025Z,102135.16
2022-10-27T05:43:42.545Z,102133.50
2022-10-27T05:46:09.370Z,102132.91
2022-10-27T05:48:35.879Z,102138.19
2022-10-27T05:51:02.354Z,102145.47
2022-10-27T05:53:28.816Z,102139.47
2022-10-27T05:55:55.359Z,102149.19
2022-10-27T05:58:21.910Z,102138.00
2022-10-27T06:00:49.497Z,102139.19
2022-10-27T06:03:23.931Z,102147.56
2022-10-27T06:05:50.867Z,102139.22
2022-10-27T06:08:18.030Z,102141.78
2022-10-27T06:10:45.259Z,102145.09
2022-10-27T06:13:14.483Z,102149.31
2022-10-27T06:15:41.304Z,102151.34
2022-10-27T06:18:08.251Z,102150.38
2022-10-27T06:20:34.770Z,102148.34
2022-10-27T06:23:01.230Z,102157.34
2022-10-27T06:25:27.706Z,102160.03
2022-10-27T06:27:54.532Z,102157.34
2022-10-27T06:30:21.220Z,102155.81
2022-10-27T06:32:47.755Z,102164.75
2022-10-27T06:35:14.320Z,102165.06
2022-10-27T06:37:42.896Z,102171.22
2022-10-27T06:40:09.884Z,102168.19
2022-10-27T06:42:48.693Z,102163.41
2022-10-27T06:45:18.587Z,102164.09
2022-10-27T06:47:45.426Z,102169.28
2022-10-27T06:50:12.255Z,102171.72
2022-10-27T06:52:39.540Z,102173.59
2022-10-27T06:55:06.239Z,102179.09
2022-10-27T06:57:40.863Z,102185.09
2022-10-27T07:00:08.295Z,102186.72
2022-10-27T07:02:34.972Z,102183.72
2022-10-27T07:05:01.571Z,102197.50
2022-10-27T07:07:28.027Z,102202.31
2022-10-27T07:09:54.543Z,102195.66
2022-10-27T07:12:21.087Z,102192.53
2022-10-27T07:14:47.560Z,102200.84
2022-10-27T07:17:14.058Z,102186.72
2022-10-27T07:19:40.564Z,102191.63
2022-10-27T07:22:07.014Z,102199.75
2022-10-27T07:24:33.461Z,102197.41
2022-10-27T07:26:59.979Z,102194.50
2022-10-27T07:29:26.532Z,102195.56
2022-10-27T07:31:53.232Z,102198.03
2022-10-27T07:34:19.699Z,102205.22
2022-10-27T07:36:46.412Z,102204.66
2022-10-27T07:39:12.873Z,102201.81
2022-10-27T07:41:39.332Z,102207.38
2022-10-27T07:44:05.809Z,102209.47
2022-10-27T07:46:32.562Z,102205.97
2022-10-27T07:48:59.020Z,102204.41
2022-10-27T07:51:25.520Z,102203.59
2022-10-27T07:53:55.493Z,102197.63
2022-10-27T07:56:24.451Z,102203.34
2022-10-27T07:58:51.058Z,102204.06
2022-10-27T08:01:17.650Z,102210.28
2022-10-27T08:03:46.316Z,102218.66
2022-10-27T08:06:15.276Z,102204.75
2022-10-27T08:08:41.767Z,102201.78
2022-10-27T08:11:08.386Z,102201.09
2022-10-27T08:13:34.830Z,102194.28
2022-10-27T08:16:01.313Z,102216.31
2022-10-27T08:18:27.954Z,102216.25
2022-10-27T08:20:54.451Z,102215.28
2022-10-27T08:23:21.912Z,102216.13
2022-10-27T08:25:48.552Z,102205.13
2022-10-27T08:28:15.440Z,102198.94
2022-10-27T08:30:51.424Z,102198.56
2022-10-27T08:33:19.844Z,102195.13
2022-10-27T08:35:46.337Z,102199.78
2022-10-27T08:38:14.865Z,102194.41
2022-10-27T08:40:47.090Z,102193.38
2022-10-27T08:43:33.241Z,102200.31
2022-10-27T08:46:05.856Z,102192.84
2022-10-27T08:48:33.383Z,102190.69
2022-10-27T08:51:01.556Z,102192.47
2022-10-27T08:53:34.314Z,102195.28
2022-10-27T08:56:07.188Z,102188.94
2022-10-27T08:58:38.058Z,102178.28
2022-10-27T09:01:19.965Z,102177.03
2022-10-27T09:03:55.867Z,102175.59
2022-10-27T09:06:26.624Z,102185.50
2022-10-27T09:09:04.347Z,102188.41
2022-10-27T09:11:52.267Z,102183.72
2022-10-27T09:14:39.397Z,102181.44
2022-10-27T09:17:12.630Z,102172.47
2022-10-27T09:19:43.979Z,102175.78
2022-10-27T09:22:18.849Z,102162.97
2022-10-27T09:24:54.196Z,102159.59
2022-10-27T09:27:20.848Z,102154.69
2022-10-27T09:29:48.366Z,102156.88
2022-10-27T09:32:27.517Z,102158.78
2022-10-27T09:35:01.284Z,102161.00
2022-10-27T09:37:28.761Z,102169.81
2022-10-27T09:39:57.125Z,102162.19
2022-10-27T09:42:24.401Z,102172.78
2022-10-27T09:45:01.626Z,102172.09
2022-10-27T09:47:39.647Z,102172.13
2022-10-27T09:50:07.274Z,102177.00
2022-10-27T09:52:39.943Z,102168.16
2022-10-27T09:55:06.778Z,102176.31
2022-10-27T09:57:34.531Z,102161.16
2022-10-27T10:00:16.130Z,102171.94
2022-10-27T10:02:58.786Z,102164.31
2022-10-27T10:05:30.783Z,102154.34
2022-10-27T10:08:25.564Z,102170.50
2022-10-27T10:10:58.903Z,102161.03
2022-10-27T10:13:30.078Z,102163.50
2022-10-27T10:16:11.250Z,102155.03
2022-10-27T10:18:41.196Z,102155.63
2022-10-27T10:21:11.197Z,102144.25
2022-10-27T10:23:46.714Z,102140.16
2022-10-27T10:26:19.885Z,102132.69
2022-10-27T10:28:46.448Z,102136.66
2022-10-27T10:31:15.855Z,102131.03
2022-10-27T10:33:45.042Z,102132.47
2022-10-27T10:36:29.966Z,102131.03
2022-10-27T10:38:58.513Z,102127.72
2022-10-27T10:41:26.088Z,102133.94
2022-10-27T10:44:11.242Z,102124.00
2022-10-27T10:46:52.840Z,102120.69
2022-10-27T10:49:22.390Z,102128.13
2022-10-27T10:51:53.855Z,102126.09
2022-10-27T10:54:31.429Z,102119.84
2022-10-27T10:56:57.938Z,102124.03
2022-10-27T10:59:29.644Z,102118.59
2022-10-27T11:02:21.099Z,102111.16
2022-10-27T11:04:47.911Z,102117.59
2022-10-27T11:07:30.504Z,102114.69
2022-10-27T11:10:10.098Z,102113.44
2022-10-27T11:12:40.749Z,102109.50
2022-10-27T11:15:17.333Z,102093.56
2022-10-27T11:17:46.004Z,102106.19
2022-10-27T11:20:24.811Z,102088.38
2022-10-27T11:22:52.418Z,102091.72
2022-10-27T11:25:21.378Z,102094.59
2022-10-27T11:28:04.963Z,102079.28
2022-10-27T11:30:34.990Z,102077.34
2022-10-27T11:33:13.383Z,102071.94
2022-10-27T11:35:42.726Z,102070.03
2022-10-27T11:38:20.273Z,102066.00
2022-10-27T11:40:49.656Z,102053.44
2022-10-27T11:43:46.427Z,102060.47
2022-10-27T11:46:19.635Z,102057.44
2022-10-27T11:48:51.217Z,102043.44
2022-10-27T11:51:28.119Z,102030.72
2022-10-27T11:53:54.783Z,102036.59
2022-10-27T11:56:49.801Z,102041.19
2022-10-27T11:59:39.011Z,102053.28
2022-10-27T12:02:36.629Z,102048.88
2022-10-27T12:05:09.024Z,102056.25
2022-10-27T12:07:47.093Z,102055.34
2022-10-27T12:10:32.331Z,102063.50
2022-10-27T12:13:12.574Z,102061.09
2022-10-27T12:15:49.255Z,102050.13
2022-10-27T12:18:46.493Z,102046.78
2022-10-27T12:21:28.891Z,102033.53
2022-10-27T12:23:55.320Z,102027.28
2022-10-27T12:26:27.948Z,102012.91
2022-10-27T12:28:54.732Z,102006.69
2022-10-27T12:31:25.123Z,102016.22
2022-10-27T12:33:57.303Z,102013.00
2022-10-27T12:36:48.518Z,102020.69
2022-10-27T12:39:32.085Z,102016.47
2022-10-27T12:42:06.916Z,102012.50
2022-10-27T12:47:38.684Z,102012.03
2022-10-27T12:50:23.571Z,102009.13
2022-10-27T12:52:55.943Z,102006.53
2022-10-27T12:55:28.780Z,102002.56
2022-10-27T12:58:46.480Z,101999.25
2022-10-27T13:01:34.370Z,102000.44
2022-10-27T13:04:39.999Z,101989.03
2022-10-27T13:07:25.079Z,101988.91
2022-10-27T13:10:14.896Z,102002.34
2022-10-27T13:12:57.244Z,101993.56
2022-10-27T13:15:44.895Z,101975.81
2022-10-27T13:18:53.026Z,101973.63
2022-10-27T13:21:40.082Z,101984.44
2022-10-27T13:24:31.215Z,101974.69
2022-10-27T13:27:15.858Z,101970.63
2022-10-27T13:29:49.653Z,101964.66
2022-10-27T13:32:32.678Z,101944.84
2022-10-27T13:35:01.924Z,101941.50
2022-10-27T13:37:48.500Z,101945.78
2022-10-27T13:40:18.128Z,101969.78
2022-10-27T13:42:54.716Z,101958.09
2022-10-27T13:45:27.083Z,101959.38
2022-10-27T13:48:11.690Z,101949.41
2022-10-27T13:50:38.905Z,101966.16
2022-10-27T13:53:14.520Z,101960.50
2022-10-27T13:55:47.043Z,101964.66
2022-10-27T13:58:19.767Z,101944.00
2022-10-27T14:01:05.311Z,101949.56
2022-10-27T14:06:14.280Z,101943.34
2022-10-27T14:08:49.926Z,101941.47
2022-10-27T14:11:30.396Z,101932.53
2022-10-27T14:14:03.026Z,101928.88
2022-10-27T14:16:34.777Z,101920.66
2022-10-27T14:19:05.135Z,101910.75
2022-10-27T14:21:36.040Z,101899.84
2022-10-27T14:24:26.739Z,101897.47
2022-10-27T14:27:04.339Z,101900.22
2022-10-27T14:29:33.548Z,101897.50
2022-10-27T14:32:13.680Z,101914.56
2022-10-27T14:34:40.156Z,101921.69
2022-10-27T14:37:16.270Z,101910.19
2022-10-27T14:39:43.096Z,101921.19
2022-10-27T14:42:27.004Z,101910.31
2022-10-27T14:45:11.957Z,101913.56
2022-10-27T14:47:41.527Z,101914.34
2022-10-27T14:50:25.700Z,101911.69
2022-10-27T14:52:56.711Z,101912.50
2022-10-27T14:55:35.343Z,101916.69
2022-10-27T14:58:02.632Z,101917.69
2022-10-27T15:00:34.626Z,101912.56
2022-10-27T15:03:04.077Z,101906.41
2022-10-27T15:05:35.844Z,101909.94
2022-10-27T15:08:05.210Z,101902.19
2022-10-27T15:10:37.392Z,101910.44
2022-10-27T15:13:05.815Z,101909.19
2022-10-27T15:15:39.721Z,101915.00
2022-10-27T15:18:21.907Z,101905.09
2022-10-27T15:20:48.999Z,101901.41
2022-10-27T15:23:15.704Z,101907.78
2022-10-27T15:25:46.514Z,101904.88
2022-10-27T15:28:16.079Z,101894.97
2022-10-27T15:30:43.403Z,101900.56
2022-10-27T15:33:28.059Z,101902.66
2022-10-27T15:35:55.862Z,101904.53
2022-10-27T15:38:27.755Z,101910.13
2022-10-27T15:40:55.883Z,101910.16
2022-10-27T15:43:27.612Z,101907.44
2022-10-27T15:46:19.311Z,101901.03
2022-10-27T15:49:28.131Z,101900.66
2022-10-27T15:51:57.103Z,101909.31
2022-10-27T15:54:49.278Z,101900.06
2022-10-27T15:57:35.918Z,101899.25
2022-10-27T16:00:19.134Z,101896.78
2022-10-27T16:02:54.053Z,101894.97
2022-10-27T16:05:29.729Z,101906.69
2022-10-27T16:08:00.421Z,101904.25
2022-10-27T16:10:27.289Z,101898.44
2022-10-27T16:12:55.001Z,101904.66
2022-10-27T16:15:24.014Z,101894.72
2022-10-27T16:17:56.024Z,101893.25
2022-10-27T16:20:24.738Z,101888.53
2022-10-27T16:22:52.205Z,101882.31
2022-10-27T16:25:20.924Z,101888.69
2022-10-27T16:27:47.841Z,101885.63
2022-10-27T16:30:16.873Z,101871.53
2022-10-27T16:32:45.551Z,101866.34
2022-10-27T16:35:24.796Z,101874.41
2022-10-27T16:37:51.248Z,101859.97
2022-10-27T16:40:18.129Z,101858.94
2022-10-27T16:42:47.120Z,101853.16
2022-10-27T16:45:20.159Z,101853.56
2022-10-27T16:47:50.366Z,101849.41
2022-10-27T16:50:17.779Z,101848.56
2022-10-27T16:52:44.608Z,101861.41
2022-10-27T16:55:12.251Z,101852.69
2022-10-27T16:57:39.686Z,101846.72
2022-10-27T17:00:07.808Z,101850.41
2022-10-27T17:02:34.285Z,101840.47
2022-10-27T17:05:00.742Z,101837.56
2022-10-27T17:07:27.194Z,101847.94
2022-10-27T17:09:53.724Z,101839.25
2022-10-27T17:12:20.218Z,101841.31
2022-10-27T17:14:49.364Z,101837.56
2022-10-27T17:17:17.947Z,101833.06
2022-10-27T17:19:44.403Z,101834.50
2022-10-27T17:22:10.844Z,101825.66
2022-10-27T17:24:37.373Z,101821.13
2022-10-27T17:27:04.140Z,101819.69
2022-10-27T17:29:30.597Z,101822.13
2022-10-27T17:31:57.113Z,101821.88
2022-10-27T17:34:23.643Z,101815.94
2022-10-27T17:36:50.184Z,101811.16
2022-10-27T17:39:16.703Z,101802.88
2022-10-27T17:41:43.225Z,101803.03
2022-10-27T17:44:09.676Z,101800.38
2022-10-27T17:46:36.224Z,101792.50
2022-10-27T17:49:02.689Z,101794.94
2022-10-27T17:51:30.918Z,101803.41
2022-10-27T17:53:58.762Z,101802.38
2022-10-27T17:56:27.366Z,101810.22
2022-10-27T17:58:53.979Z,101799.72
2022-10-27T18:01:31.042Z,101808.22
2022-10-27T18:04:06.499Z,101810.94
2022-10-27T18:06:33.307Z,101799.53
2022-10-27T18:09:01.069Z,101807.63
2022-10-27T18:11:29.523Z,101827.06
2022-10-27T18:14:03.834Z,101832.69
2022-10-27T18:16:32.526Z,101839.56
2022-10-27T18:19:01.259Z,101837.22
2022-10-27T18:21:33.193Z,101835.16
2022-10-27T18:24:00.521Z,101827.72
2022-10-27T18:26:28.708Z,101832.28
2022-10-27T18:28:55.446Z,101825.25
2022-10-27T18:31:23.711Z,101828.78
2022-10-27T18:33:50.169Z,101856.47
2022-10-27T18:36:21.940Z,101874.88
2022-10-27T18:38:52.792Z,101871.97
2022-10-27T18:41:19.285Z,101854.22
2022-10-27T18:43:52.663Z,101836.63
2022-10-27T18:46:20.063Z,101821.53
2022-10-27T18:48:49.814Z,101792.63
2022-10-27T18:51:16.357Z,101791.38
2022-10-27T18:53:43.408Z,101816.38
2022-10-27T18:56:11.303Z,101812.25
2022-10-27T18:58:38.185Z,101803.75
2022-10-27T19:01:15.162Z,101806.44
2022-10-27T19:03:42.220Z,101793.88
2022-10-27T19:06:10.513Z,101799.25
2022-10-27T19:08:37.044Z,101795.09
2022-10-27T19:11:09.105Z,101788.91
2022-10-27T19:13:37.369Z,101801.53
2022-10-27T19:16:10.427Z,101800.69
2022-10-27T19:18:37.194Z,101802.53
2022-10-27T19:21:06.313Z,101801.69
2022-10-27T19:23:33.263Z,101794.03
2022-10-27T19:26:08.311Z,101785.16
2022-10-27T19:28:36.674Z,101782.69
2022-10-27T19:31:16.918Z,101786.00
2022-10-27T19:33:44.741Z,101787.88
2022-10-27T19:36:15.103Z,101781.06
2022-10-27T19:38:42.043Z,101779.81
2022-10-27T19:41:11.816Z,101777.75
2022-10-27T19:43:38.432Z,101774.44
2022-10-27T19:46:05.992Z,101778.56
2022-10-27T19:48:36.334Z,101783.50
2022-10-27T19:51:13.450Z,101782.09
2022-10-27T19:53:40.103Z,101781.88
2022-10-27T19:56:06.825Z,101776.91
2022-10-27T19:58:33.356Z,101772.78
2022-10-27T20:00:59.851Z,101765.31
2022-10-27T20:03:26.323Z,101760.19
2022-10-27T20:05:56.274Z,101761.41
2022-10-27T20:08:23.067Z,101759.56
2022-10-27T20:10:49.586Z,101756.91
2022-10-27T20:13:18.213Z,101756.28
2022-10-27T20:15:44.658Z,101748.63
2022-10-27T20:18:11.133Z,101744.69
2022-10-27T20:20:37.594Z,101750.47
2022-10-27T20:23:04.055Z,101733.13
2022-10-27T20:25:30.811Z,101736.63
2022-10-27T20:27:57.505Z,101738.50
2022-10-27T20:30:33.915Z,101726.31
2022-10-27T20:33:00.511Z,101728.16
2022-10-27T20:35:27.014Z,101725.66
2022-10-27T20:37:53.479Z,101730.22
2022-10-27T20:40:21.790Z,101722.78
2022-10-27T20:43:04.205Z,101721.97
2022-10-27T20:45:30.745Z,101714.13
2022-10-27T20:47:57.291Z,101710.81
2022-10-27T20:50:23.734Z,101709.13
2022-10-27T20:52:50.205Z,101715.56
2022-10-27T20:55:16.717Z,101719.69
2022-10-27T20:57:43.199Z,101714.31
2022-10-27T21:00:11.101Z,101711.59
2022-10-27T21:02:37.850Z,101714.53
2022-10-27T21:05:04.567Z,101707.66
2022-10-27T21:07:31.018Z,101706.41
2022-10-27T21:09:57.482Z,101704.94
2022-10-27T21:12:23.936Z,101710.94
2022-10-27T21:14:50.392Z,101707.00
2022-10-27T21:17:16.884Z,101703.28
2022-10-27T21:19:43.353Z,101695.03
2022-10-27T21:22:09.791Z,101705.72
2022-10-27T21:24:38.347Z,101702.81
2022-10-27T21:27:04.899Z,101707.16
2022-10-27T21:29:31.911Z,101706.34
2022-10-27T21:31:58.867Z,101710.69
2022-10-27T21:34:25.947Z,101708.47
2022-10-27T21:36:52.392Z,101705.38
2022-10-27T21:39:19.136Z,101707.84
2022-10-27T21:41:45.579Z,101703.94
2022-10-27T21:44:12.057Z,101705.56
2022-10-27T21:46:38.527Z,101701.66
2022-10-27T21:49:05.000Z,101712.00
2022-10-27T21:51:31.492Z,101700.81
2022-10-27T21:54:02.794Z,101711.94
2022-10-27T21:56:30.686Z,101715.25
2022-10-27T21:58:57.672Z,101710.28
2022-10-27T22:01:25.348Z,101700.16
2022-10-27T22:03:52.129Z,101699.25
2022-10-27T22:06:23.524Z,101709.00
2022-10-27T22:08:50.351Z,101709.63
2022-10-27T22:11:21.608Z,101706.53
2022-10-27T22:13:48.231Z,101707.94
2022-10-27T22:16:19.582Z,101708.53
2022-10-27T22:18:46.687Z,101703.59
2022-10-27T22:21:15.432Z,101693.84
2022-10-27T22:23:42.219Z,101701.50
2022-10-27T22:26:11.720Z,101711.00
2022-10-27T22:28:38.837Z,101707.09
2022-10-27T22:31:10.246Z,101709.78
2022-10-27T22:33:39.422Z,101709.16
2022-10-27T22:36:10.748Z,101697.34
2022-10-27T22:38:37.205Z,101699.78
2022-10-27T22:41:12.174Z,101708.91
2022-10-27T22:43:38.994Z,101712.19
2022-10-27T22:46:06.511Z,101714.09
2022-10-27T22:48:34.515Z,101709.72
2022-10-27T22:51:06.748Z,101720.88
2022-10-27T22:53:35.566Z,101724.03
2022-10-27T22:56:16.274Z,101732.72
2022-10-27T22:58:43.073Z,101734.16
2022-10-27T23:01:12.089Z,101737.69
2022-10-27T23:03:38.959Z,101736.66
2022-10-27T23:06:05.501Z,101741.22
2022-10-27T23:08:31.955Z,101740.84
2022-10-27T23:11:00.476Z,101736.91
2022-10-27T23:13:28.198Z,101728.88
2022-10-27T23:15:59.618Z,101734.66
2022-10-27T23:18:26.539Z,101730.31
2022-10-27T23:20:57.162Z,101734.22
2022-10-27T23:23:23.826Z,101731.97
2022-10-27T23:25:50.515Z,101736.09
2022-10-27T23:28:16.984Z,101738.75
2022-10-27T23:30:43.468Z,101740.22
2022-10-27T23:33:09.948Z,101743.69
2022-10-27T23:35:39.532Z,101740.59
2022-10-27T23:38:05.978Z,101737.69
2022-10-27T23:40:32.630Z,101730.25
2022-10-27T23:42:59.092Z,101745.91
2022-10-27T23:45:27.171Z,101741.75
2022-10-27T23:47:53.763Z,101747.78
2022-10-27T23:50:20.664Z,101744.03
2022-10-27T23:52:47.202Z,101745.31
2022-10-27T23:55:13.681Z,101739.53
2022-10-27T23:57:40.147Z,101738.28
